KMTH/MTH METAR and TAF weather

Enter ICAO airport designator
Station Type Date Time Source
KMTH METAR 2019/11/18 03:53 UTC NOAA

KMTH 180353Z AUTO 36007KT 10SM OVC015 18/14 A2990 RMK AO2 SLP123 T01830144 $


Station Type Date Time Source
KMTH Decoded METAR 2019/11/18 03:53 UTC NOAA

MARATHON AIRPORT, FL, United States (KMTH) 24-44N 81-03W 2M
Nov 17, 2019 - 10:53 PM EST / 2019.11.18 0353 UTC
Wind: from the N (360 degrees) at 8 MPH (7 KT):0
Visibility: 10 mile(s):0
Sky conditions: overcast
Temperature: 64.9 F (18.3 C)
Dew Point: 57.9 F (14.4 C)
Relative Humidity: 77%
Pressure (altimeter): 29.9 in. Hg (1012 hPa)
ob: KMTH 180353Z AUTO 36007KT 10SM OVC015 18/14 A2990 RMK AO2 SLP123 T01830144
cycle: 4

Station Type Date Time Source
KMTH TAF 2019/11/18 01:12 UTC NOAA

TAF
AMD KMTH 180111Z 1801/1824 34011KT P6SM BKN020
FM180400 34007KT P6SM SCT020 BKN035
TEMPO 1804/1808 BKN020
FM181600 32007KT P6SM SCT025 SCT035

Example: see airport list